createdAt,value
2018-11-29T00:01:16.342Z,5.40
2018-11-29T00:03:45.719Z,5.30
2018-11-29T00:06:14.572Z,5.20
2018-11-29T00:08:43.409Z,5.20
2018-11-29T00:11:12.362Z,5.30
2018-11-29T00:13:41.279Z,5.30
2018-11-29T00:16:10.155Z,5.30
2018-11-29T00:18:39.060Z,5.40
2018-11-29T00:21:07.952Z,5.60
2018-11-29T00:23:52.820Z,5.60
2018-11-29T00:26:21.711Z,5.70
2018-11-29T00:28:50.732Z,5.60
2018-11-29T00:31:19.889Z,5.50
2018-11-29T00:33:48.952Z,5.50
2018-11-29T00:36:18.024Z,5.40
2018-11-29T00:38:46.989Z,5.40
2018-11-29T00:41:16.084Z,5.50
2018-11-29T00:43:45.086Z,5.40
2018-11-29T00:46:14.060Z,5.30
2018-11-29T00:48:42.902Z,5.30
2018-11-29T00:51:12.088Z,5.20
2018-11-29T00:53:40.911Z,5.10
2018-11-29T00:56:09.935Z,5.20
2018-11-29T00:58:39.433Z,5.20
2018-11-29T01:01:08.419Z,5.10
2018-11-29T01:03:38.487Z,5.00
2018-11-29T01:06:07.512Z,5.00
2018-11-29T01:08:36.679Z,5.10
2018-11-29T01:11:05.932Z,5.20
2018-11-29T01:13:34.928Z,5.30
2018-11-29T01:16:04.435Z,5.20
2018-11-29T01:18:33.898Z,5.20
2018-11-29T01:21:03.136Z,5.30
2018-11-29T01:23:32.251Z,5.20
2018-11-29T01:26:01.323Z,5.10
2018-11-29T01:28:30.395Z,5.00
2018-11-29T01:30:59.330Z,5.10
2018-11-29T01:33:28.321Z,5.00
2018-11-29T01:35:57.318Z,5.10
2018-11-29T01:38:26.491Z,5.20
2018-11-29T01:40:55.594Z,5.20
2018-11-29T01:43:24.528Z,5.20
2018-11-29T01:45:53.507Z,5.30
2018-11-29T01:48:22.415Z,5.20
2018-11-29T01:50:51.299Z,5.20
2018-11-29T01:53:20.117Z,5.00
2018-11-29T01:55:48.959Z,4.80
2018-11-29T01:58:18.046Z,4.90
2018-11-29T02:00:47.178Z,4.90
2018-11-29T02:03:16.407Z,4.90
2018-11-29T02:05:45.405Z,5.00
2018-11-29T02:08:14.431Z,4.80
2018-11-29T02:10:48.670Z,4.90
2018-11-29T02:13:17.965Z,4.90
2018-11-29T02:15:47.383Z,4.90
2018-11-29T02:18:18.647Z,4.90
2018-11-29T02:20:47.956Z,5.00
2018-11-29T02:23:17.285Z,5.00
2018-11-29T02:25:46.686Z,5.00
2018-11-29T02:28:16.080Z,5.00
2018-11-29T02:30:45.536Z,4.90
2018-11-29T02:33:15.140Z,4.90
2018-11-29T02:35:44.561Z,5.00
2018-11-29T02:38:13.851Z,4.90
2018-11-29T02:40:43.298Z,4.80
2018-11-29T02:43:13.756Z,4.80
2018-11-29T02:45:43.177Z,4.70
2018-11-29T02:48:12.550Z,4.70
2018-11-29T02:50:42.891Z,4.70
2018-11-29T02:53:12.221Z,4.70
2018-11-29T02:55:41.542Z,4.60
2018-11-29T02:58:13.784Z,4.50
2018-11-29T03:00:42.969Z,4.40
2018-11-29T03:03:12.475Z,4.40
2018-11-29T03:05:41.736Z,4.40
2018-11-29T03:08:11.217Z,4.30
2018-11-29T03:10:40.717Z,4.60
2018-11-29T03:13:11.132Z,4.40
2018-11-29T03:15:40.534Z,4.40
2018-11-29T03:18:10.060Z,4.40
2018-11-29T03:20:40.556Z,4.40
2018-11-29T03:23:09.998Z,4.50
2018-11-29T03:25:39.478Z,4.30
2018-11-29T03:28:09.114Z,4.30
2018-11-29T03:30:38.475Z,4.20
2018-11-29T03:33:08.178Z,4.20
2018-11-29T03:35:38.540Z,4.10
2018-11-29T03:38:09.076Z,4.20
2018-11-29T03:40:38.456Z,4.20
2018-11-29T03:43:07.923Z,4.10
2018-11-29T03:45:37.227Z,4.00
2018-11-29T03:48:06.943Z,4.00
2018-11-29T03:50:37.144Z,4.00
2018-11-29T03:53:06.790Z,4.00
2018-11-29T03:55:37.507Z,4.00
2018-11-29T03:58:07.039Z,4.00
2018-11-29T04:00:36.454Z,4.00
2018-11-29T04:03:06.707Z,4.00
2018-11-29T04:05:36.074Z,4.00
2018-11-29T04:08:05.677Z,4.00
2018-11-29T04:10:35.610Z,4.00
2018-11-29T04:13:05.983Z,4.10
2018-11-29T04:15:35.209Z,4.20
2018-11-29T04:18:04.707Z,4.20
2018-11-29T04:20:34.569Z,4.20
2018-11-29T04:23:03.781Z,4.30
2018-11-29T04:25:33.046Z,4.30
2018-11-29T04:28:03.179Z,4.30
2018-11-29T04:30:32.479Z,4.40
2018-11-29T04:33:02.744Z,4.40
2018-11-29T04:35:32.159Z,4.40
2018-11-29T04:38:01.360Z,4.40
2018-11-29T04:40:31.519Z,4.40
2018-11-29T04:43:01.082Z,4.40
2018-11-29T04:45:41.186Z,4.40
2018-11-29T04:48:10.389Z,4.40
2018-11-29T04:50:39.666Z,4.40
2018-11-29T04:53:09.007Z,4.50
2018-11-29T04:55:38.538Z,4.50
2018-11-29T04:58:07.900Z,4.50
2018-11-29T05:00:37.604Z,4.40
2018-11-29T05:03:07.496Z,4.50
2018-11-29T05:05:36.925Z,4.40
2018-11-29T05:08:06.909Z,4.50
2018-11-29T05:10:36.136Z,4.60
2018-11-29T05:13:05.848Z,4.50
2018-11-29T05:15:35.022Z,4.40
2018-11-29T05:18:05.420Z,4.40
2018-11-29T05:20:34.577Z,4.40
2018-11-29T05:23:05.337Z,4.30
2018-11-29T05:25:35.401Z,4.30
2018-11-29T05:28:04.603Z,4.30
2018-11-29T05:30:33.919Z,4.40
2018-11-29T05:33:03.161Z,4.30
2018-11-29T05:35:32.688Z,4.30
2018-11-29T05:38:03.323Z,4.30
2018-11-29T05:40:34.687Z,4.20
2018-11-29T05:43:04.449Z,4.20
2018-11-29T05:45:34.303Z,4.10
2018-11-29T05:48:03.636Z,4.10
2018-11-29T05:50:33.426Z,4.20
2018-11-29T05:53:02.674Z,4.10
2018-11-29T05:55:32.180Z,4.10
2018-11-29T05:58:02.426Z,4.10
2018-11-29T06:00:31.895Z,4.10
2018-11-29T06:03:01.161Z,4.10
2018-11-29T06:05:31.596Z,4.10
2018-11-29T06:08:01.444Z,4.10
2018-11-29T06:10:31.093Z,4.30
2018-11-29T06:13:00.524Z,4.30
2018-11-29T06:15:31.176Z,4.20
2018-11-29T06:18:00.998Z,4.20
2018-11-29T06:20:32.839Z,4.10
2018-11-29T06:23:02.487Z,4.10
2018-11-29T06:25:33.598Z,4.10
2018-11-29T06:28:03.489Z,3.90
2018-11-29T06:30:34.764Z,4.00
2018-11-29T06:33:05.149Z,4.00
2018-11-29T06:35:36.940Z,4.00
2018-11-29T06:38:07.263Z,3.90
2018-11-29T06:40:38.270Z,3.90
2018-11-29T06:43:07.729Z,3.90
2018-11-29T06:45:37.121Z,3.80
2018-11-29T06:48:10.568Z,3.90
2018-11-29T06:50:40.099Z,3.90
2018-11-29T06:53:14.559Z,3.80
2018-11-29T06:55:44.140Z,3.90
2018-11-29T06:58:19.913Z,3.80
2018-11-29T07:00:49.565Z,3.90
2018-11-29T07:03:20.170Z,4.00
2018-11-29T07:05:49.844Z,4.00
2018-11-29T07:08:34.338Z,4.10
2018-11-29T07:11:05.091Z,4.00
2018-11-29T07:13:34.959Z,4.10
2018-11-29T07:16:05.090Z,4.00
2018-11-29T07:18:35.295Z,4.00
2018-11-29T07:21:18.284Z,4.20
2018-11-29T07:23:50.423Z,4.10
2018-11-29T07:26:20.346Z,4.20
2018-11-29T07:59:14.003Z,4.80
2018-11-29T08:01:46.756Z,5.00
2018-11-29T08:04:19.104Z,5.20
2018-11-29T08:15:17.380Z,6.00
2018-11-29T08:17:47.003Z,6.10
2018-11-29T08:20:18.204Z,6.20
2018-11-29T08:22:49.256Z,6.50
2018-11-29T08:25:20.534Z,6.60
2018-11-29T08:27:52.676Z,6.80
2018-11-29T08:30:22.885Z,6.90
2018-11-29T08:32:53.392Z,7.00
2018-11-29T08:35:24.892Z,7.20
2018-11-29T08:37:55.644Z,7.80
2018-11-29T08:40:25.581Z,8.90
2018-11-29T08:42:54.961Z,9.60
2018-11-29T08:45:25.836Z,9.40
2018-11-29T08:47:56.287Z,9.20
2018-11-29T08:50:26.191Z,8.80
2018-11-29T08:52:57.766Z,8.40
2018-11-29T08:55:28.474Z,8.30
2018-11-29T08:57:57.823Z,8.40
2018-11-29T09:00:31.327Z,8.40
2018-11-29T09:03:01.781Z,8.20
2018-11-29T09:05:34.055Z,8.30
2018-11-29T09:08:08.017Z,8.40
2018-11-29T09:10:41.768Z,8.50
2018-11-29T09:13:12.566Z,8.60
2018-11-29T09:15:46.330Z,8.60
2018-11-29T09:18:18.047Z,8.90
2018-11-29T09:20:54.526Z,8.80
2018-11-29T09:23:31.843Z,8.80
2018-11-29T09:26:05.115Z,8.90
2018-11-29T09:28:37.803Z,8.90
2018-11-29T09:31:13.773Z,8.90
2018-11-29T09:33:43.973Z,8.90
2018-11-29T09:36:15.066Z,9.00
2018-11-29T09:38:45.897Z,9.20
2018-11-29T09:41:17.552Z,9.30
2018-11-29T09:43:49.042Z,9.50
2018-11-29T09:46:22.667Z,9.50
2018-11-29T09:48:52.631Z,9.80
2018-11-29T09:51:22.329Z,9.90
2018-11-29T09:53:51.763Z,9.80
2018-11-29T09:56:25.511Z,9.60
2018-11-29T09:58:56.922Z,9.50
2018-11-29T10:01:27.526Z,9.80
2018-11-29T10:03:57.801Z,9.90
2018-11-29T10:06:27.417Z,10.20
2018-11-29T10:11:44.293Z,10.20
2018-11-29T10:14:15.167Z,10.20
2018-11-29T10:16:44.929Z,10.40
2018-11-29T10:19:15.980Z,10.50
2018-11-29T10:21:49.423Z,10.20
2018-11-29T10:24:19.553Z,10.20
2018-11-29T10:26:50.181Z,10.10
2018-11-29T10:29:20.837Z,10.00
2018-11-29T10:31:50.883Z,9.80
2018-11-29T10:36:58.806Z,9.40
2018-11-29T10:39:28.596Z,9.50
2018-11-29T10:41:58.377Z,9.40
2018-11-29T10:44:28.917Z,9.60
2018-11-29T10:46:58.555Z,9.70
2018-11-29T10:49:28.302Z,10.00
2018-11-29T10:51:58.953Z,10.50
2018-11-29T10:54:28.659Z,11.30
2018-11-29T10:56:59.831Z,11.80
2018-11-29T10:59:30.013Z,11.90
2018-11-29T11:02:05.761Z,12.30
2018-11-29T11:04:35.952Z,12.40
2018-11-29T11:07:05.688Z,13.20
2018-11-29T11:09:35.503Z,15.30
2018-11-29T11:12:05.074Z,17.10
2018-11-29T11:14:36.246Z,18.20
2018-11-29T11:17:04.936Z,18.80
2018-11-29T11:19:34.107Z,19.00
2018-11-29T11:22:03.212Z,19.10
2018-11-29T11:24:32.470Z,19.10
2018-11-29T11:27:01.673Z,19.10
2018-11-29T11:29:31.588Z,17.70
2018-11-29T11:32:07.655Z,16.20
2018-11-29T11:34:39.767Z,15.10
2018-11-29T11:37:09.832Z,14.20
2018-11-29T11:39:40.189Z,13.30
2018-11-29T11:42:09.207Z,12.90
2018-11-29T11:44:40.428Z,12.40
2018-11-29T11:47:10.884Z,12.20
2018-11-29T11:49:42.213Z,11.90
2018-11-29T11:52:12.375Z,11.60
2018-11-29T11:54:41.979Z,11.60
2018-11-29T11:57:11.719Z,11.50
2018-11-29T11:59:43.850Z,11.20
2018-11-29T12:02:13.720Z,11.10
2018-11-29T12:04:43.295Z,11.10
2018-11-29T12:07:12.708Z,10.90
2018-11-29T12:09:42.485Z,10.80
2018-11-29T12:12:12.071Z,10.70
2018-11-29T12:14:44.820Z,10.70
2018-11-29T12:17:19.966Z,10.70
2018-11-29T12:19:56.931Z,10.60
2018-11-29T12:22:27.658Z,10.70
2018-11-29T12:24:57.397Z,10.70
2018-11-29T12:27:27.279Z,10.50
2018-11-29T12:29:57.388Z,10.60
2018-11-29T12:40:23.512Z,10.40
2018-11-29T12:42:57.620Z,10.30
2018-11-29T12:45:31.020Z,10.20
2018-11-29T12:48:02.345Z,10.20
2018-11-29T12:50:40.376Z,10.30
2018-11-29T12:53:09.959Z,10.20
2018-11-29T12:55:45.405Z,10.20
2018-11-29T12:58:15.598Z,10.20
2018-11-29T13:00:44.768Z,10.10
2018-11-29T13:03:13.923Z,10.00
2018-11-29T13:05:43.340Z,10.10
2018-11-29T13:08:12.431Z,10.10
2018-11-29T13:10:41.905Z,10.10
2018-11-29T13:13:11.028Z,10.00
2018-11-29T13:15:40.330Z,10.00
2018-11-29T13:18:10.326Z,9.90
2018-11-29T13:20:39.725Z,10.00
2018-11-29T13:23:10.226Z,9.90
2018-11-29T13:25:42.519Z,9.90
2018-11-29T13:28:12.478Z,10.00
2018-11-29T13:30:42.090Z,10.00
2018-11-29T13:33:11.796Z,10.00
2018-11-29T13:35:44.968Z,10.10
2018-11-29T13:38:15.459Z,10.00
2018-11-29T13:40:47.108Z,9.90
2018-11-29T13:43:18.143Z,9.90
2018-11-29T13:45:48.305Z,9.80
2018-11-29T13:48:18.362Z,9.70
2018-11-29T13:50:48.476Z,9.60
2018-11-29T13:53:19.289Z,9.60
2018-11-29T13:55:49.498Z,9.60
2018-11-29T13:58:20.168Z,9.60
2018-11-29T14:00:51.600Z,9.60
2018-11-29T14:03:20.757Z,9.60
2018-11-29T14:05:49.928Z,9.60
2018-11-29T14:08:19.353Z,9.60
2018-11-29T14:10:48.714Z,9.50
2018-11-29T14:19:42.095Z,9.40
2018-11-29T14:22:10.948Z,9.20
2018-11-29T14:24:40.177Z,9.10
2018-11-29T14:27:10.289Z,9.20
2018-11-29T14:29:40.231Z,9.20
2018-11-29T14:32:09.666Z,9.20
2018-11-29T14:34:39.144Z,9.20
2018-11-29T14:37:08.723Z,9.10
2018-11-29T14:45:03.760Z,8.90
2018-11-29T14:47:33.055Z,8.80
2018-11-29T14:50:02.553Z,8.80
2018-11-29T14:52:32.500Z,8.80
2018-11-29T14:55:02.357Z,8.80
2018-11-29T14:57:31.524Z,8.90
2018-11-29T15:00:00.798Z,8.90
2018-11-29T15:02:30.768Z,8.90
2018-11-29T15:05:00.487Z,8.90
2018-11-29T15:07:30.023Z,8.80
2018-11-29T15:10:00.389Z,8.90
2018-11-29T15:18:18.041Z,8.80
2018-11-29T15:26:12.252Z,8.70
2018-11-29T15:28:41.350Z,8.70
2018-11-29T15:31:11.368Z,8.70
2018-11-29T15:36:28.739Z,8.50
2018-11-29T15:38:58.182Z,8.50
2018-11-29T15:41:28.848Z,8.50
2018-11-29T15:43:58.636Z,8.60
2018-11-29T15:46:28.060Z,8.60
2018-11-29T15:48:58.624Z,8.60
2018-11-29T15:51:27.908Z,8.70
2018-11-29T15:53:58.647Z,8.70
2018-11-29T15:56:28.412Z,8.60
2018-11-29T15:58:58.558Z,8.70
2018-11-29T16:01:27.997Z,8.60
2018-11-29T16:04:00.476Z,8.60
2018-11-29T16:06:30.138Z,8.60
2018-11-29T16:08:59.896Z,8.60
2018-11-29T16:11:34.055Z,8.60
2018-11-29T16:14:05.410Z,8.60
2018-11-29T16:16:35.284Z,8.60
2018-11-29T16:19:04.746Z,8.60
2018-11-29T16:21:33.745Z,8.50
2018-11-29T16:24:04.839Z,8.50
2018-11-29T16:26:34.815Z,8.40
2018-11-29T16:29:05.253Z,8.50
2018-11-29T16:31:35.502Z,8.60
2018-11-29T16:34:04.795Z,8.50
2018-11-29T16:36:34.280Z,8.40
2018-11-29T16:39:03.754Z,8.40
2018-11-29T16:41:33.064Z,8.50
2018-11-29T16:44:01.992Z,8.50
2018-11-29T16:46:31.281Z,8.40
2018-11-29T16:49:02.911Z,8.20
2018-11-29T16:51:30.030Z,8.20
2018-11-29T16:54:24.691Z,8.20
2018-11-29T16:57:07.579Z,8.20
2018-11-29T16:59:38.631Z,8.20
2018-11-29T17:02:07.956Z,8.30
2018-11-29T17:04:37.064Z,8.10
2018-11-29T17:07:06.797Z,8.10
2018-11-29T17:09:36.049Z,8.20
2018-11-29T17:12:05.119Z,8.10
2018-11-29T17:14:47.055Z,8.10
2018-11-29T17:17:16.948Z,8.10
2018-11-29T17:19:46.208Z,8.20
2018-11-29T17:22:15.339Z,8.20
2018-11-29T17:24:44.273Z,8.10
2018-11-29T17:27:13.808Z,8.10
2018-11-29T17:29:43.351Z,8.10
2018-11-29T17:32:14.428Z,8.10
2018-11-29T17:34:43.366Z,8.10
2018-11-29T17:37:13.123Z,8.00
2018-11-29T17:39:42.087Z,8.00
2018-11-29T17:42:11.090Z,8.10
2018-11-29T17:44:40.744Z,8.00
2018-11-29T17:47:11.422Z,8.00
2018-11-29T17:49:41.125Z,7.90
2018-11-29T17:52:10.144Z,7.80
2018-11-29T17:54:39.132Z,7.80
2018-11-29T17:57:08.363Z,7.80
2018-11-29T17:59:37.344Z,7.80
2018-11-29T18:02:06.777Z,7.90
2018-11-29T18:04:35.778Z,7.80
2018-11-29T18:07:05.287Z,7.80
2018-11-29T18:09:34.324Z,7.80
2018-11-29T18:12:03.710Z,7.70
2018-11-29T18:14:32.962Z,7.50
2018-11-29T18:17:02.021Z,7.50
2018-11-29T18:19:31.399Z,7.40
2018-11-29T18:22:00.298Z,7.40
2018-11-29T18:24:29.374Z,7.30
2018-11-29T18:26:58.439Z,7.30
2018-11-29T18:29:27.656Z,7.30
2018-11-29T18:31:56.691Z,7.20
2018-11-29T18:34:25.563Z,7.30
2018-11-29T18:36:54.422Z,7.20
2018-11-29T18:39:24.073Z,7.10
2018-11-29T18:41:53.054Z,7.00
2018-11-29T18:44:22.096Z,7.00
2018-11-29T18:46:51.574Z,7.10
2018-11-29T18:49:21.459Z,7.00
2018-11-29T18:51:50.702Z,7.00
2018-11-29T18:54:19.935Z,6.90
2018-11-29T18:56:48.935Z,6.70
2018-11-29T18:59:18.007Z,6.70
2018-11-29T19:01:47.568Z,6.80
2018-11-29T19:04:16.643Z,6.80
2018-11-29T19:06:45.663Z,6.70
2018-11-29T19:09:14.720Z,6.60
2018-11-29T19:11:44.054Z,6.60
2018-11-29T19:14:12.999Z,6.60
2018-11-29T19:16:42.005Z,6.60
2018-11-29T19:19:11.147Z,6.50
2018-11-29T19:21:40.917Z,6.50
2018-11-29T19:24:09.914Z,6.40
2018-11-29T19:26:38.811Z,6.40
2018-11-29T19:29:07.931Z,6.40
2018-11-29T19:31:36.784Z,6.40
2018-11-29T19:34:06.120Z,6.50
2018-11-29T19:36:34.939Z,6.60
2018-11-29T19:39:04.359Z,6.50
2018-11-29T19:41:33.430Z,6.60
2018-11-29T19:44:02.421Z,6.50
2018-11-29T19:46:32.058Z,6.40
2018-11-29T19:49:01.143Z,6.40
2018-11-29T19:51:30.088Z,6.40
2018-11-29T19:54:00.119Z,6.40
2018-11-29T19:56:28.972Z,6.40
2018-11-29T19:58:58.473Z,6.40
2018-11-29T20:01:32.138Z,6.50
2018-11-29T20:04:00.989Z,6.60
2018-11-29T20:06:30.202Z,6.50
2018-11-29T20:08:59.256Z,6.50
2018-11-29T20:11:28.239Z,6.50
2018-11-29T20:13:57.255Z,6.40
2018-11-29T20:16:26.419Z,6.30
2018-11-29T20:18:55.327Z,6.40
2018-11-29T20:21:24.174Z,6.40
2018-11-29T20:23:53.052Z,6.40
2018-11-29T20:26:22.020Z,6.40
2018-11-29T20:28:50.861Z,6.40
2018-11-29T20:31:19.783Z,6.30
2018-11-29T20:33:48.865Z,6.30
2018-11-29T20:36:17.681Z,6.20
2018-11-29T20:38:46.604Z,6.10
2018-11-29T20:41:15.480Z,6.10
2018-11-29T20:43:44.340Z,6.10
2018-11-29T20:46:13.198Z,6.20
2018-11-29T20:48:42.043Z,6.20
2018-11-29T20:51:10.932Z,6.10
2018-11-29T20:53:40.442Z,6.00
2018-11-29T20:56:11.186Z,6.00
2018-11-29T20:58:40.205Z,6.00
2018-11-29T21:01:10.114Z,5.90
2018-11-29T21:03:39.822Z,5.90
2018-11-29T21:06:11.731Z,5.90
2018-11-29T21:08:40.739Z,6.00
2018-11-29T21:11:10.273Z,5.90
2018-11-29T21:13:39.624Z,5.80
2018-11-29T21:16:08.396Z,5.80
2018-11-29T21:18:37.413Z,5.70
2018-11-29T21:21:06.768Z,5.70
2018-11-29T21:23:35.708Z,5.50
2018-11-29T21:26:04.720Z,5.40
2018-11-29T21:28:33.615Z,5.30
2018-11-29T21:31:02.580Z,5.40
2018-11-29T21:33:31.429Z,5.50
2018-11-29T21:36:00.320Z,5.40
2018-11-29T21:38:32.632Z,5.40
2018-11-29T21:41:03.157Z,5.40
2018-11-29T21:43:31.914Z,5.40
2018-11-29T21:46:01.083Z,5.40
2018-11-29T21:48:29.835Z,5.30
2018-11-29T21:50:58.748Z,5.30
2018-11-29T21:53:27.688Z,5.30
2018-11-29T21:55:56.515Z,5.20
2018-11-29T21:58:25.375Z,5.10
2018-11-29T22:00:54.180Z,5.10
2018-11-29T22:03:23.054Z,5.10
2018-11-29T22:05:52.068Z,5.10
2018-11-29T22:08:21.140Z,5.00
2018-11-29T22:10:49.985Z,5.00
2018-11-29T22:13:18.816Z,4.90
2018-11-29T22:15:47.613Z,5.00
2018-11-29T22:18:20.537Z,5.00
2018-11-29T22:20:55.639Z,4.90
2018-11-29T22:23:24.523Z,4.90
2018-11-29T22:25:53.913Z,4.80
2018-11-29T22:28:22.900Z,4.80
2018-11-29T22:30:51.809Z,4.80
2018-11-29T22:33:20.742Z,4.80
2018-11-29T22:35:49.795Z,4.80
2018-11-29T22:38:18.628Z,4.70
2018-11-29T22:40:47.465Z,4.70
2018-11-29T22:43:16.227Z,4.70
2018-11-29T22:45:45.112Z,4.70
2018-11-29T22:48:14.025Z,4.70
2018-11-29T22:50:42.771Z,4.60
2018-11-29T22:53:11.755Z,4.50
2018-11-29T22:55:40.710Z,4.50
2018-11-29T22:58:09.812Z,4.50
2018-11-29T23:00:39.613Z,4.50
2018-11-29T23:03:08.641Z,4.50
2018-11-29T23:05:39.134Z,4.40
2018-11-29T23:08:08.050Z,4.40
2018-11-29T23:10:36.975Z,4.40
2018-11-29T23:13:06.285Z,4.30
2018-11-29T23:15:35.353Z,4.30
2018-11-29T23:18:06.823Z,4.20
2018-11-29T23:20:35.671Z,4.10
2018-11-29T23:23:04.543Z,4.10
2018-11-29T23:25:33.336Z,4.10
2018-11-29T23:28:02.862Z,4.10
2018-11-29T23:30:32.800Z,4.10
2018-11-29T23:33:01.803Z,4.00
2018-11-29T23:35:30.739Z,4.00
2018-11-29T23:38:01.229Z,4.00
2018-11-29T23:40:30.106Z,4.10
2018-11-29T23:42:58.838Z,4.00
2018-11-29T23:45:27.883Z,3.90
2018-11-29T23:47:56.776Z,3.90
2018-11-29T23:50:25.552Z,3.90
2018-11-29T23:52:54.259Z,3.90
2018-11-29T23:55:23.204Z,3.90
2018-11-29T23:57:52.507Z,3.80
